sensor_id;sensor_type;location;lat;lon;timestamp;pressure;altitude;pressure_sealevel;temperature;humidity
64908;BME280;64365;-1.756;110.040;2022-12-07T00:00:17;101810.09;;;6.96;89.27
64908;BME280;64365;-1.756;110.040;2022-12-07T00:02:44;101810.84;;;6.96;91.71
64908;BME280;64365;-1.756;110.040;2022-12-07T00:05:10;101810.84;;;6.96;90.38
64908;BME280;64365;-1.756;110.040;2022-12-07T00:07:37;101810.09;;;6.96;89.11
64908;BME280;64365;-1.756;110.040;2022-12-07T00:10:05;101811.81;;;6.91;87.34
64908;BME280;64365;-1.756;110.040;2022-12-07T00:12:32;101813.19;;;6.89;88.24
64908;BME280;64365;-1.756;110.040;2022-12-07T00:14:58;101815.84;;;6.89;87.15
64908;BME280;64365;-1.756;110.040;2022-12-07T00:17:26;101808.53;;;6.86;89.28
64908;BME280;64365;-1.756;110.040;2022-12-07T00:19:53;101812.88;;;6.90;89.55
64908;BME280;64365;-1.756;110.040;2022-12-07T00:22:19;101797.66;;;6.87;88.07
64908;BME280;64365;-1.756;110.040;2022-12-07T00:24:46;101800.31;;;6.87;87.53
64908;BME280;64365;-1.756;110.040;2022-12-07T00:27:12;101800.91;;;6.84;86.35
64908;BME280;64365;-1.756;110.040;2022-12-07T00:29:39;101787.84;;;6.79;87.55
64908;BME280;64365;-1.756;110.040;2022-12-07T00:32:06;101793.94;;;6.80;86.94
64908;BME280;64365;-1.756;110.040;2022-12-07T00:34:34;101793.31;;;6.74;86.89
64908;BME280;64365;-1.756;110.040;2022-12-07T00:37:00;101787.56;;;6.63;85.91
64908;BME280;64365;-1.756;110.040;2022-12-07T00:39:27;101786.94;;;6.57;85.15
64908;BME280;64365;-1.756;110.040;2022-12-07T00:41:54;101782.44;;;6.49;84.97
64908;BME280;64365;-1.756;110.040;2022-12-07T00:44:20;101783.69;;;6.43;84.83
64908;BME280;64365;-1.756;110.040;2022-12-07T00:46:47;101780.44;;;6.37;84.64
64908;BME280;64365;-1.756;110.040;2022-12-07T00:49:14;101777.44;;;6.30;84.15
64908;BME280;64365;-1.756;110.040;2022-12-07T00:51:42;101777.28;;;6.18;84.84
64908;BME280;64365;-1.756;110.040;2022-12-07T00:54:08;101790.31;;;6.14;86.21
64908;BME280;64365;-1.756;110.040;2022-12-07T00:56:35;101786.13;;;6.13;85.62
64908;BME280;64365;-1.756;110.040;2022-12-07T00:59:03;101780.25;;;6.07;88.23
64908;BME280;64365;-1.756;110.040;2022-12-07T01:01:31;101784.41;;;6.09;85.29
64908;BME280;64365;-1.756;110.040;2022-12-07T01:03:58;101781.16;;;6.03;87.29
64908;BME280;64365;-1.756;110.040;2022-12-07T01:06:26;101777.25;;;6.00;87.43
64908;BME280;64365;-1.756;110.040;2022-12-07T01:08:54;101773.38;;;5.98;86.27
64908;BME280;64365;-1.756;110.040;2022-12-07T01:11:23;101774.72;;;5.95;85.43
64908;BME280;64365;-1.756;110.040;2022-12-07T01:13:50;101777.22;;;5.92;87.00
64908;BME280;64365;-1.756;110.040;2022-12-07T01:16:17;101781.06;;;5.85;85.67
64908;BME280;64365;-1.756;110.040;2022-12-07T01:18:46;101776.25;;;5.79;84.26
64908;BME280;64365;-1.756;110.040;2022-12-07T01:21:15;101774.03;;;5.72;84.82
64908;BME280;64365;-1.756;110.040;2022-12-07T01:23:42;101775.75;;;5.68;84.73
64908;BME280;64365;-1.756;110.040;2022-12-07T01:26:13;101777.56;;;5.59;84.76
64908;BME280;64365;-1.756;110.040;2022-12-07T01:28:40;101778.94;;;5.56;84.94
64908;BME280;64365;-1.756;110.040;2022-12-07T01:31:09;101782.50;;;5.51;84.92
64908;BME280;64365;-1.756;110.040;2022-12-07T01:33:37;101777.84;;;5.48;84.26
64908;BME280;64365;-1.756;110.040;2022-12-07T01:36:05;101786.34;;;5.45;85.28
64908;BME280;64365;-1.756;110.040;2022-12-07T01:38:33;101787.44;;;5.44;85.84
64908;BME280;64365;-1.756;110.040;2022-12-07T01:41:00;101790.41;;;5.43;88.46
64908;BME280;64365;-1.756;110.040;2022-12-07T01:43:30;101794.41;;;5.40;86.58
64908;BME280;64365;-1.756;110.040;2022-12-07T01:45:58;101798.88;;;5.39;85.44
64908;BME280;64365;-1.756;110.040;2022-12-07T01:48:28;101790.03;;;5.35;86.61
64908;BME280;64365;-1.756;110.040;2022-12-07T01:50:56;101792.72;;;5.44;88.89
64908;BME280;64365;-1.756;110.040;2022-12-07T01:53:28;101783.31;;;5.61;91.09
64908;BME280;64365;-1.756;110.040;2022-12-07T01:55:56;101779.69;;;5.79;92.27
64908;BME280;64365;-1.756;110.040;2022-12-07T01:58:24;101786.56;;;5.98;92.42
64908;BME280;64365;-1.756;110.040;2022-12-07T02:00:52;101772.78;;;6.01;89.17
64908;BME280;64365;-1.756;110.040;2022-12-07T02:03:22;101781.91;;;6.03;88.35
64908;BME280;64365;-1.756;110.040;2022-12-07T02:05:51;101771.66;;;6.02;87.07
64908;BME280;64365;-1.756;110.040;2022-12-07T02:08:19;101779.94;;;6.09;86.68
64908;BME280;64365;-1.756;110.040;2022-12-07T02:10:46;101774.66;;;6.09;87.30
64908;BME280;64365;-1.756;110.040;2022-12-07T02:13:15;101773.09;;;6.08;88.56
64908;BME280;64365;-1.756;110.040;2022-12-07T02:15:57;101773.09;;;6.08;86.75
64908;BME280;64365;-1.756;110.040;2022-12-07T02:18:36;101766.88;;;6.04;88.22
64908;BME280;64365;-1.756;110.040;2022-12-07T02:21:07;101765.31;;;6.03;87.06
64908;BME280;64365;-1.756;110.040;2022-12-07T02:23:59;101767.28;;;5.97;84.56
64908;BME280;64365;-1.756;110.040;2022-12-07T02:29:29;101763.84;;;5.88;84.79
64908;BME280;64365;-1.756;110.040;2022-12-07T02:32:03;101757.47;;;5.80;84.41
64908;BME280;64365;-1.756;110.040;2022-12-07T02:34:34;101761.16;;;5.62;83.41
64908;BME280;64365;-1.756;110.040;2022-12-07T02:37:10;101761.47;;;5.69;83.85
64908;BME280;64365;-1.756;110.040;2022-12-07T02:39:44;101754.19;;;5.66;84.69
64908;BME280;64365;-1.756;110.040;2022-12-07T02:42:15;101757.91;;;5.65;85.36
64908;BME280;64365;-1.756;110.040;2022-12-07T02:44:45;101754.31;;;5.61;86.14
64908;BME280;64365;-1.756;110.040;2022-12-07T02:47:15;101753.69;;;5.64;85.89
64908;BME280;64365;-1.756;110.040;2022-12-07T02:49:43;101757.59;;;5.66;90.80
64908;BME280;64365;-1.756;110.040;2022-12-07T02:52:10;101768.19;;;5.84;92.95
64908;BME280;64365;-1.756;110.040;2022-12-07T02:54:37;101746.00;;;5.94;88.74
64908;BME280;64365;-1.756;110.040;2022-12-07T02:57:12;101764.03;;;5.92;86.78
64908;BME280;64365;-1.756;110.040;2022-12-07T02:59:54;101755.31;;;5.82;88.34
64908;BME280;64365;-1.756;110.040;2022-12-07T03:02:28;101766.66;;;5.92;90.50
64908;BME280;64365;-1.756;110.040;2022-12-07T03:05:05;101767.44;;;5.92;87.83
64908;BME280;64365;-1.756;110.040;2022-12-07T03:07:40;101758.75;;;5.92;87.42
64908;BME280;64365;-1.756;110.040;2022-12-07T03:10:16;101754.06;;;5.88;86.96
64908;BME280;64365;-1.756;110.040;2022-12-07T03:12:52;101753.31;;;5.88;89.32
64908;BME280;64365;-1.756;110.040;2022-12-07T03:15:27;101754.88;;;5.89;89.28
64908;BME280;64365;-1.756;110.040;2022-12-07T03:17:59;101748.34;;;5.86;89.68
64908;BME280;64365;-1.756;110.040;2022-12-07T03:20:29;101747.25;;;5.87;88.49
64908;BME280;64365;-1.756;110.040;2022-12-07T03:22:57;101751.13;;;5.81;87.12
64908;BME280;64365;-1.756;110.040;2022-12-07T03:25:25;101755.28;;;5.73;85.65
64908;BME280;64365;-1.756;110.040;2022-12-07T03:27:55;101746.59;;;5.64;85.43
64908;BME280;64365;-1.756;110.040;2022-12-07T03:30:28;101753.38;;;5.56;85.50
64908;BME280;64365;-1.756;110.040;2022-12-07T03:33:00;101749.63;;;5.49;88.42
64908;BME280;64365;-1.756;110.040;2022-12-07T03:35:32;101754.44;;;5.55;91.17
64908;BME280;64365;-1.756;110.040;2022-12-07T03:38:06;101761.28;;;5.56;88.02
64908;BME280;64365;-1.756;110.040;2022-12-07T03:40:42;101763.94;;;5.56;88.01
64908;BME280;64365;-1.756;110.040;2022-12-07T03:43:11;101761.75;;;5.59;88.66
64908;BME280;64365;-1.756;110.040;2022-12-07T03:45:42;101753.38;;;5.65;91.42
64908;BME280;64365;-1.756;110.040;2022-12-07T03:48:16;101745.84;;;5.72;90.43
64908;BME280;64365;-1.756;110.040;2022-12-07T03:50:50;101743.97;;;5.73;88.23
64908;BME280;64365;-1.756;110.040;2022-12-07T03:53:22;101736.69;;;5.79;89.29
64908;BME280;64365;-1.756;110.040;2022-12-07T03:55:52;101737.31;;;5.84;89.89
64908;BME280;64365;-1.756;110.040;2022-12-07T03:58:21;101738.91;;;6.03;93.51
64908;BME280;64365;-1.756;110.040;2022-12-07T04:00:50;101731.16;;;6.15;94.86
64908;BME280;64365;-1.756;110.040;2022-12-07T04:03:18;101724.97;;;6.29;94.74
64908;BME280;64365;-1.756;110.040;2022-12-07T04:05:44;101724.19;;;6.28;92.58
64908;BME280;64365;-1.756;110.040;2022-12-07T04:08:11;101721.41;;;6.33;93.66
64908;BME280;64365;-1.756;110.040;2022-12-07T04:10:38;101720.94;;;6.31;91.03
64908;BME280;64365;-1.756;110.040;2022-12-07T04:13:04;101720.94;;;6.31;90.90
64908;BME280;64365;-1.756;110.040;2022-12-07T04:15:31;101727.16;;;6.27;90.79
64908;BME280;64365;-1.756;110.040;2022-12-07T04:17:59;101726.97;;;6.32;93.07
64908;BME280;64365;-1.756;110.040;2022-12-07T04:20:25;101756.34;;;6.39;94.43
64908;BME280;64365;-1.756;110.040;2022-12-07T04:22:52;101761.31;;;6.49;94.27
64908;BME280;64365;-1.756;110.040;2022-12-07T04:25:19;101750.13;;;6.61;91.33
64908;BME280;64365;-1.756;110.040;2022-12-07T04:27:45;101738.31;;;6.67;91.34
64908;BME280;64365;-1.756;110.040;2022-12-07T04:30:12;101729.16;;;6.65;91.09
64908;BME280;64365;-1.756;110.040;2022-12-07T04:32:38;101727.44;;;6.69;91.49
64908;BME280;64365;-1.756;110.040;2022-12-07T04:35:07;101729.44;;;6.72;90.61
64908;BME280;64365;-1.756;110.040;2022-12-07T04:37:34;101728.66;;;6.80;91.83
64908;BME280;64365;-1.756;110.040;2022-12-07T04:40:01;101726.00;;;6.80;90.71
64908;BME280;64365;-1.756;110.040;2022-12-07T04:42:27;101728.03;;;6.83;92.77
64908;BME280;64365;-1.756;110.040;2022-12-07T04:44:54;101720.56;;;6.85;92.66
64908;BME280;64365;-1.756;110.040;2022-12-07T04:47:20;101725.41;;;6.83;92.19
64908;BME280;64365;-1.756;110.040;2022-12-07T04:49:47;101719.16;;;6.79;90.73
64908;BME280;64365;-1.756;110.040;2022-12-07T04:52:15;101726.78;;;6.72;89.48
64908;BME280;64365;-1.756;110.040;2022-12-07T04:54:41;101712.97;;;6.66;89.36
64908;BME280;64365;-1.756;110.040;2022-12-07T04:57:08;101723.69;;;6.61;88.31
64908;BME280;64365;-1.756;110.040;2022-12-07T04:59:35;101712.53;;;6.55;87.61
64908;BME280;64365;-1.756;110.040;2022-12-07T05:02:01;101714.56;;;6.50;87.74
64908;BME280;64365;-1.756;110.040;2022-12-07T05:04:28;101714.25;;;6.43;86.98
64908;BME280;64365;-1.756;110.040;2022-12-07T05:06:55;101706.78;;;6.36;86.92
64908;BME280;64365;-1.756;110.040;2022-12-07T05:09:23;101707.56;;;6.28;87.83
64908;BME280;64365;-1.756;110.040;2022-12-07T05:11:49;101717.03;;;6.29;88.40
64908;BME280;64365;-1.756;110.040;2022-12-07T05:14:20;101715.94;;;6.21;89.30
64908;BME280;64365;-1.756;110.040;2022-12-07T05:16:48;101717.19;;;6.23;89.74
64908;BME280;64365;-1.756;110.040;2022-12-07T05:19:15;101711.75;;;6.11;88.54
64908;BME280;64365;-1.756;110.040;2022-12-07T05:21:43;101708.19;;;6.07;87.31
64908;BME280;64365;-1.756;110.040;2022-12-07T05:24:11;101721.53;;;6.02;86.68
64908;BME280;64365;-1.756;110.040;2022-12-07T05:26:40;101718.88;;;5.93;85.39
64908;BME280;64365;-1.756;110.040;2022-12-07T05:29:07;101716.69;;;5.86;86.68
64908;BME280;64365;-1.756;110.040;2022-12-07T05:31:33;101707.34;;;5.80;85.76
64908;BME280;64365;-1.756;110.040;2022-12-07T05:34:00;101715.44;;;5.75;86.74
64908;BME280;64365;-1.756;110.040;2022-12-07T05:36:26;101709.66;;;5.73;86.45
64908;BME280;64365;-1.756;110.040;2022-12-07T05:38:56;101708.09;;;5.72;87.79
64908;BME280;64365;-1.756;110.040;2022-12-07T05:41:22;101715.88;;;5.77;87.85
64908;BME280;64365;-1.756;110.040;2022-12-07T05:44:08;101710.91;;;5.76;88.22
64908;BME280;64365;-1.756;110.040;2022-12-07T05:46:35;101717.91;;;5.80;87.79
64908;BME280;64365;-1.756;110.040;2022-12-07T05:49:02;101717.13;;;5.80;90.02
64908;BME280;64365;-1.756;110.040;2022-12-07T05:51:29;101721.66;;;5.88;89.39
64908;BME280;64365;-1.756;110.040;2022-12-07T05:53:55;101710.00;;;5.89;87.64
64908;BME280;64365;-1.756;110.040;2022-12-07T05:56:22;101707.41;;;5.98;88.45
64908;BME280;64365;-1.756;110.040;2022-12-07T05:58:49;101713.63;;;6.02;87.55
64908;BME280;64365;-1.756;110.040;2022-12-07T06:01:34;101705.34;;;5.95;89.59
64908;BME280;64365;-1.756;110.040;2022-12-07T06:04:01;101706.03;;;6.18;88.30
64908;BME280;64365;-1.756;110.040;2022-12-07T06:06:27;101705.09;;;6.22;87.60
64908;BME280;64365;-1.756;110.040;2022-12-07T06:08:54;101708.19;;;6.24;85.90
64908;BME280;64365;-1.756;110.040;2022-12-07T06:11:21;101711.16;;;6.23;85.16
64908;BME280;64365;-1.756;110.040;2022-12-07T06:14:05;101704.94;;;6.01;88.74
64908;BME280;64365;-1.756;110.040;2022-12-07T06:16:31;101716.44;;;6.23;90.16
64908;BME280;64365;-1.756;110.040;2022-12-07T06:18:59;101705.09;;;6.31;91.13
64908;BME280;64365;-1.756;110.040;2022-12-07T06:21:26;101712.88;;;6.36;88.53
64908;BME280;64365;-1.756;110.040;2022-12-07T06:23:53;101717.66;;;6.34;89.04
64908;BME280;64365;-1.756;110.040;2022-12-07T06:26:20;101713.47;;;6.42;90.63
64908;BME280;64365;-1.756;110.040;2022-12-07T06:28:46;101713.31;;;6.47;90.17
64908;BME280;64365;-1.756;110.040;2022-12-07T06:31:13;101710.69;;;6.47;89.11
64908;BME280;64365;-1.756;110.040;2022-12-07T06:33:40;101714.88;;;6.48;87.70
64908;BME280;64365;-1.756;110.040;2022-12-07T06:36:09;101709.59;;;6.48;89.59
64908;BME280;64365;-1.756;110.040;2022-12-07T06:38:35;101723.56;;;6.49;87.44
64908;BME280;64365;-1.756;110.040;2022-12-07T06:41:03;101712.53;;;6.47;85.76
64908;BME280;64365;-1.756;110.040;2022-12-07T06:43:29;101710.50;;;6.44;85.37
64908;BME280;64365;-1.756;110.040;2022-12-07T06:45:56;101727.59;;;6.46;88.10
64908;BME280;64365;-1.756;110.040;2022-12-07T06:48:22;101719.84;;;6.50;88.18
64908;BME280;64365;-1.756;110.040;2022-12-07T06:50:49;101723.56;;;6.49;86.30
64908;BME280;64365;-1.756;110.040;2022-12-07T06:53:17;101708.66;;;6.44;84.50
64908;BME280;64365;-1.756;110.040;2022-12-07T06:55:44;101707.59;;;6.36;86.29
64908;BME280;64365;-1.756;110.040;2022-12-07T06:58:10;101712.22;;;6.39;86.51
64908;BME280;64365;-1.756;110.040;2022-12-07T07:00:37;101708.97;;;6.34;85.38
64908;BME280;64365;-1.756;110.040;2022-12-07T07:03:03;101705.41;;;6.30;85.08
64908;BME280;64365;-1.756;110.040;2022-12-07T07:05:30;101708.50;;;6.32;85.57
64908;BME280;64365;-1.756;110.040;2022-12-07T07:07:56;101711.75;;;6.29;84.92
64908;BME280;64365;-1.756;110.040;2022-12-07T07:10:24;101710.38;;;6.22;84.86
64908;BME280;64365;-1.756;110.040;2022-12-07T07:12:51;101710.22;;;6.19;85.17
64908;BME280;64365;-1.756;110.040;2022-12-07T07:15:17;101714.72;;;6.18;85.89
64908;BME280;64365;-1.756;110.040;2022-12-07T07:17:44;101713.78;;;6.14;84.43
64908;BME280;64365;-1.756;110.040;2022-12-07T07:20:12;101706.03;;;6.09;84.30
64908;BME280;64365;-1.756;110.040;2022-12-07T07:22:38;101716.56;;;6.00;83.25
64908;BME280;64365;-1.756;110.040;2022-12-07T07:25:05;101712.19;;;5.96;84.26
64908;BME280;64365;-1.756;110.040;2022-12-07T07:27:33;101718.88;;;5.93;83.09
64908;BME280;64365;-1.756;110.040;2022-12-07T07:30:02;101717.94;;;5.89;85.41
64908;BME280;64365;-1.756;110.040;2022-12-07T07:32:28;101721.97;;;5.86;85.77
64908;BME280;64365;-1.756;110.040;2022-12-07T07:34:55;101723.97;;;5.89;86.45
64908;BME280;64365;-1.756;110.040;2022-12-07T07:37:23;101725.53;;;5.90;85.82
64908;BME280;64365;-1.756;110.040;2022-12-07T07:39:49;101718.56;;;5.86;84.84
64908;BME280;64365;-1.756;110.040;2022-12-07T07:42:16;101729.88;;;5.86;83.42
64908;BME280;64365;-1.756;110.040;2022-12-07T07:44:44;101724.44;;;5.83;84.11
64908;BME280;64365;-1.756;110.040;2022-12-07T07:47:10;101721.34;;;5.81;85.82
64908;BME280;64365;-1.756;110.040;2022-12-07T07:49:37;101725.22;;;5.83;86.60
64908;BME280;64365;-1.756;110.040;2022-12-07T07:52:04;101726.16;;;5.87;86.09
64908;BME280;64365;-1.756;110.040;2022-12-07T07:54:31;101719.78;;;5.88;87.07
64908;BME280;64365;-1.756;110.040;2022-12-07T07:56:58;101737.97;;;5.99;87.32
64908;BME280;64365;-1.756;110.040;2022-12-07T07:59:25;101737.84;;;6.04;86.48
64908;BME280;64365;-1.756;110.040;2022-12-07T08:01:53;101751.84;;;6.13;87.18
64908;BME280;64365;-1.756;110.040;2022-12-07T08:04:20;101741.91;;;6.19;86.31
64908;BME280;64365;-1.756;110.040;2022-12-07T08:06:46;101740.50;;;6.21;87.57
64908;BME280;64365;-1.756;110.040;2022-12-07T08:09:13;101723.88;;;6.30;87.87
64908;BME280;64365;-1.756;110.040;2022-12-07T08:11:39;101743.00;;;6.44;89.56
64908;BME280;64365;-1.756;110.040;2022-12-07T08:14:06;101734.91;;;6.58;91.23
64908;BME280;64365;-1.756;110.040;2022-12-07T08:16:32;101737.38;;;6.72;90.08
64908;BME280;64365;-1.756;110.040;2022-12-07T08:19:00;101742.34;;;6.82;89.84
64908;BME280;64365;-1.756;110.040;2022-12-07T08:21:27;101740.28;;;6.88;89.87
64908;BME280;64365;-1.756;110.040;2022-12-07T08:23:54;101739.81;;;6.95;89.51
64908;BME280;64365;-1.756;110.040;2022-12-07T08:26:20;101743.81;;;7.01;89.51
64908;BME280;64365;-1.756;110.040;2022-12-07T08:28:47;101740.25;;;7.05;88.49
64908;BME280;64365;-1.756;110.040;2022-12-07T08:31:15;101737.75;;;7.09;87.36
64908;BME280;64365;-1.756;110.040;2022-12-07T08:33:44;101736.69;;;7.01;86.25
64908;BME280;64365;-1.756;110.040;2022-12-07T08:36:12;101750.81;;;7.05;84.41
64908;BME280;64365;-1.756;110.040;2022-12-07T08:38:40;101742.41;;;7.03;86.47
64908;BME280;64365;-1.756;110.040;2022-12-07T08:41:07;101744.91;;;7.08;86.38
64908;BME280;64365;-1.756;110.040;2022-12-07T08:43:35;101751.91;;;7.13;86.68
64908;BME280;64365;-1.756;110.040;2022-12-07T08:46:06;101742.41;;;7.12;86.12
64908;BME280;64365;-1.756;110.040;2022-12-07T08:48:37;101738.03;;;7.16;85.97
64908;BME280;64365;-1.756;110.040;2022-12-07T08:51:06;101725.41;;;7.22;87.23
64908;BME280;64365;-1.756;110.040;2022-12-07T08:53:35;101722.59;;;7.27;87.43
64908;BME280;64365;-1.756;110.040;2022-12-07T08:56:04;101717.31;;;7.27;86.92
64908;BME280;64365;-1.756;110.040;2022-12-07T08:58:32;101722.28;;;7.29;86.46
64908;BME280;64365;-1.756;110.040;2022-12-07T09:00:59;101719.00;;;7.32;86.45
64908;BME280;64365;-1.756;110.040;2022-12-07T09:03:26;101719.41;;;7.42;87.86
64908;BME280;64365;-1.756;110.040;2022-12-07T09:05:53;101716.91;;;7.46;86.97
64908;BME280;64365;-1.756;110.040;2022-12-07T09:08:21;101726.22;;;7.52;87.26
64908;BME280;64365;-1.756;110.040;2022-12-07T09:10:50;101712.09;;;7.48;87.76
64908;BME280;64365;-1.756;110.040;2022-12-07T09:13:16;101727.41;;;7.64;86.92
64908;BME280;64365;-1.756;110.040;2022-12-07T09:15:43;101728.38;;;7.59;85.33
64908;BME280;64365;-1.756;110.040;2022-12-07T09:18:09;101732.88;;;7.58;85.60
64908;BME280;64365;-1.756;110.040;2022-12-07T09:20:36;101723.38;;;7.57;85.48
64908;BME280;64365;-1.756;110.040;2022-12-07T09:23:05;101734.13;;;7.61;83.55
64908;BME280;64365;-1.756;110.040;2022-12-07T09:25:32;101729.16;;;7.59;85.74
64908;BME280;64365;-1.756;110.040;2022-12-07T09:28:00;101744.00;;;7.73;87.19
64908;BME280;64365;-1.756;110.040;2022-12-07T09:30:27;101731.84;;;7.81;86.83
64908;BME280;64365;-1.756;110.040;2022-12-07T09:32:54;101739.25;;;7.87;85.58
64908;BME280;64365;-1.756;110.040;2022-12-07T09:35:21;101727.19;;;7.99;85.25
64908;BME280;64365;-1.756;110.040;2022-12-07T09:37:48;101730.09;;;8.06;85.19
64908;BME280;64365;-1.756;110.040;2022-12-07T09:40:16;101736.09;;;8.15;84.45
64908;BME280;64365;-1.756;110.040;2022-12-07T09:42:45;101727.06;;;8.16;83.91
64908;BME280;64365;-1.756;110.040;2022-12-07T09:45:17;101728.63;;;8.17;83.72
64908;BME280;64365;-1.756;110.040;2022-12-07T09:47:45;101730.16;;;8.18;83.26
64908;BME280;64365;-1.756;110.040;2022-12-07T09:50:15;101725.38;;;8.12;83.75
64908;BME280;64365;-1.756;110.040;2022-12-07T09:52:44;101725.19;;;8.17;83.30
64908;BME280;64365;-1.756;110.040;2022-12-07T09:55:15;101723.34;;;8.17;82.29
64908;BME280;64365;-1.756;110.040;2022-12-07T09:57:44;101723.97;;;8.14;82.41
64908;BME280;64365;-1.756;110.040;2022-12-07T10:00:15;101720.22;;;8.15;82.89
64908;BME280;64365;-1.756;110.040;2022-12-07T10:02:46;101723.44;;;8.21;83.33
64908;BME280;64365;-1.756;110.040;2022-12-07T10:05:16;101724.22;;;8.21;83.36
64908;BME280;64365;-1.756;110.040;2022-12-07T10:07:43;101716.91;;;8.18;82.31
64908;BME280;64365;-1.756;110.040;2022-12-07T10:10:15;101714.03;;;8.11;82.38
64908;BME280;64365;-1.756;110.040;2022-12-07T10:12:54;101720.47;;;8.22;85.02
64908;BME280;64365;-1.756;110.040;2022-12-07T10:15:20;101702.25;;;8.42;84.94
64908;BME280;64365;-1.756;110.040;2022-12-07T10:17:50;101703.00;;;8.64;83.52
64908;BME280;64365;-1.756;110.040;2022-12-07T10:20:24;101701.06;;;8.85;82.49
64908;BME280;64365;-1.756;110.040;2022-12-07T10:22:57;101697.66;;;9.09;82.70
64908;BME280;64365;-1.756;110.040;2022-12-07T10:25:26;101702.63;;;9.36;82.04
64908;BME280;64365;-1.756;110.040;2022-12-07T10:27:58;101695.78;;;9.59;80.45
64908;BME280;64365;-1.756;110.040;2022-12-07T10:30:25;101696.13;;;9.86;80.08
64908;BME280;64365;-1.756;110.040;2022-12-07T10:32:53;101696.13;;;9.86;78.46
64908;BME280;64365;-1.756;110.040;2022-12-07T10:35:23;101693.47;;;9.86;77.39
64908;BME280;64365;-1.756;110.040;2022-12-07T10:37:50;101693.47;;;9.99;79.52
64908;BME280;64365;-1.756;110.040;2022-12-07T10:40:34;101691.56;;;10.40;75.47
64908;BME280;64365;-1.756;110.040;2022-12-07T10:43:07;101686.22;;;10.68;75.84
64908;BME280;64365;-1.756;110.040;2022-12-07T10:45:57;101688.34;;;10.94;74.10
64908;BME280;64365;-1.756;110.040;2022-12-07T10:48:36;101684.41;;;10.88;71.59
64908;BME280;64365;-1.756;110.040;2022-12-07T10:51:12;101691.06;;;10.66;71.10
64908;BME280;64365;-1.756;110.040;2022-12-07T10:53:52;101686.75;;;10.45;71.13
64908;BME280;64365;-1.756;110.040;2022-12-07T10:56:44;101681.44;;;10.17;71.25
64908;BME280;64365;-1.756;110.040;2022-12-07T10:59:42;101669.81;;;9.93;74.18
64908;BME280;64365;-1.756;110.040;2022-12-07T11:02:25;101676.78;;;9.86;73.69
64908;BME280;64365;-1.756;110.040;2022-12-07T11:05:06;101671.94;;;9.75;74.53
64908;BME280;64365;-1.756;110.040;2022-12-07T11:07:44;101670.53;;;9.66;74.79
64908;BME280;64365;-1.756;110.040;2022-12-07T11:10:17;101665.44;;;9.60;76.04
64908;BME280;64365;-1.756;110.040;2022-12-07T11:13:00;101664.16;;;9.54;74.21
64908;BME280;64365;-1.756;110.040;2022-12-07T11:15:38;101663.34;;;9.54;74.04
64908;BME280;64365;-1.756;110.040;2022-12-07T11:18:11;101662.53;;;9.78;74.73
64908;BME280;64365;-1.756;110.040;2022-12-07T11:20:53;101661.16;;;10.25;76.09
64908;BME280;64365;-1.756;110.040;2022-12-07T11:23:29;101656.69;;;11.05;73.71
64908;BME280;64365;-1.756;110.040;2022-12-07T11:26:07;101654.22;;;11.87;70.94
64908;BME280;64365;-1.756;110.040;2022-12-07T11:28:49;101626.63;;;12.38;67.70
64908;BME280;64365;-1.756;110.040;2022-12-07T11:31:24;101641.25;;;12.48;64.45
64908;BME280;64365;-1.756;110.040;2022-12-07T11:33:59;101638.47;;;12.64;64.61
64908;BME280;64365;-1.756;110.040;2022-12-07T11:36:36;101639.22;;;12.88;61.67
64908;BME280;64365;-1.756;110.040;2022-12-07T11:39:12;101633.06;;;12.84;63.49
64908;BME280;64365;-1.756;110.040;2022-12-07T11:41:42;101637.94;;;12.78;63.09
64908;BME280;64365;-1.756;110.040;2022-12-07T11:44:19;101625.28;;;12.48;64.37
64908;BME280;64365;-1.756;110.040;2022-12-07T11:46:55;101628.41;;;12.30;62.48
64908;BME280;64365;-1.756;110.040;2022-12-07T11:49:35;101622.59;;;12.25;62.62
64908;BME280;64365;-1.756;110.040;2022-12-07T11:52:06;101616.44;;;12.21;63.60
64908;BME280;64365;-1.756;110.040;2022-12-07T11:54:41;101618.38;;;12.24;63.89
64908;BME280;64365;-1.756;110.040;2022-12-07T11:57:14;101614.97;;;12.23;64.51
64908;BME280;64365;-1.756;110.040;2022-12-07T11:59:48;101613.31;;;12.15;63.63
64908;BME280;64365;-1.756;110.040;2022-12-07T12:02:21;101613.88;;;12.05;64.99
64908;BME280;64365;-1.756;110.040;2022-12-07T12:04:54;101607.84;;;11.88;62.60
64908;BME280;64365;-1.756;110.040;2022-12-07T12:07:24;101604.69;;;11.63;62.71
64908;BME280;64365;-1.756;110.040;2022-12-07T12:09:54;101591.69;;;11.42;64.93
64908;BME280;64365;-1.756;110.040;2022-12-07T12:18:23;101596.13;;;11.34;67.20
64908;BME280;64365;-1.756;110.040;2022-12-07T12:20:56;101600.81;;;11.41;64.19
64908;BME280;64365;-1.756;110.040;2022-12-07T12:23:32;101609.25;;;11.27;63.71
64908;BME280;64365;-1.756;110.040;2022-12-07T12:26:03;101632.94;;;10.97;63.26
64908;BME280;64365;-1.756;110.040;2022-12-07T12:28:35;101635.34;;;10.70;64.79
64908;BME280;64365;-1.756;110.040;2022-12-07T12:31:05;101632.03;;;10.28;66.32
64908;BME280;64365;-1.756;110.040;2022-12-07T12:33:33;101608.56;;;10.02;68.51
64908;BME280;64365;-1.756;110.040;2022-12-07T12:36:21;101595.34;;;9.61;70.62
64908;BME280;64365;-1.756;110.040;2022-12-07T12:38:52;101594.41;;;9.41;73.15
64908;BME280;64365;-1.756;110.040;2022-12-07T12:41:59;101592.44;;;9.26;76.58
64908;BME280;64365;-1.756;110.040;2022-12-07T12:44:40;101590.03;;;9.21;78.02
64908;BME280;64365;-1.756;110.040;2022-12-07T12:50:32;101583.09;;;9.04;75.50
64908;BME280;64365;-1.756;110.040;2022-12-07T12:53:15;101567.94;;;9.17;76.63
64908;BME280;64365;-1.756;110.040;2022-12-07T12:56:19;101562.81;;;9.65;76.43
64908;BME280;64365;-1.756;110.040;2022-12-07T12:59:23;101566.75;;;10.59;71.52
64908;BME280;64365;-1.756;110.040;2022-12-07T13:01:50;101568.94;;;11.25;72.72
64908;BME280;64365;-1.756;110.040;2022-12-07T13:04:39;101562.31;;;11.54;67.79